Forside
METAR-TAF:

METAR-TAF

Lufthavne :

Shanghai Pudong International Airport

Shanghai-Pudong, Kina

Breddekreds: 31-07N, længdekreds: 121-46E, højde: 4 m

Aktuelle vejr

Denne rapport blev lavet for 32 minutter siden, kl. 20:30 UTC
Vind 10 kt fra øst
Temperatur 28°C
Fugtighed 89%
Tryk 1005 hPa
Sigt 10 km eller mere
Nogle få skyer i en højde af 1600 ft

METAR: ZSPD 142030Z 09005MPS 9999 FEW016 28/26 Q1005 NOSIG

Tid: 05:02 (21:02 UTC)

Vejrudsigter

Denne rapport blev lavet for 5 timer og 50 minutter siden, kl. 15:12 UTC
Foreløbig gælder fra 14 på 18 UTC til 15 på 18 UTC
Vind 12 kt fra øst
Sigt: 6000 m
Brudte skyer i en højde af 1500 ft
ændring
fra 15 på 00 UTC til 15 på 02 UTC
Vind 14 kt fra østnordøst

TAF: ZSPD 141512Z 1418/1518 10006MPS 6000 BKN015 TX32/1506Z TN27/1421Z BECMG 1500/1502 06007MPS

Vejrobservationer og prognoser fra mere end 4000 lufthavne (METAR og TAF).

De gule og røde prikker repræsenterer de meteorologiske stationer.

Flyt musen over at se navnet på stationen.

Så klik over at se vejr observationer og prognoser.

At skifte det kort: Klik på de grønne knapper med et sort kors for at zoome ind; på den grønne knap med en bindestreg for at zoome ud; eller på de grønne pile for tilstødende kort.


METAR-TAF: